Time;durP1;ratioP1;P1;durP2;ratioP2;P2;SDS_P1;SDS_P2;PMS_P1;PMS_P2;Temp;Humidity;BMP_temperature;BMP_pressure;BME280_temperature;BME280_humidity;BME280_pressure;Samples;Min_cycle;Max_cycle;Signal;HPM_P1;HPM_P2
2021/11/18 04:45:38;;;;;;;981.83;886.93;;;5.20;99.90;;;;;;4979756;23;20494;-82
2021/11/18 05:01:50;;;;;;;959.37;864.47;;;5.10;99.90;;;;;;4952654;23;20506;-87
2021/11/18 06:58:14;;;;;;;843.30;770.27;;;6.40;99.90;;;;;;4902412;23;20481;-82
2021/11/18 07:04:51;;;;;;;;;;;;;;;;;;;;;
2021/11/18 07:33:34;;;;;;;835.80;762.30;;;6.50;99.90;;;;;;4881874;29;20575;-91
2021/11/18 07:42:57;;;;;;;;;;;;;;;;;;;;;
2021/11/18 07:46:03;;;;;;;815.97;744.50;;;6.80;99.90;;;;;;4717803;30;20568;-89
2021/11/18 07:52:10;;;;;;;792.97;726.20;;;6.90;99.90;;;;;;4694613;30;20466;-88
2021/11/18 07:58:22;;;;;;;803.27;736.93;;;7.10;99.90;;;;;;4750693;29;20472;-88
2021/11/18 08:00:56;;;;;;;804.17;740.47;;;7.10;99.90;;;;;;4787620;29;20468;-88
2021/11/18 08:03:31;;;;;;;793.13;729.90;;;7.20;99.90;;;;;;4824879;29;20464;-88
2021/11/18 08:06:07;;;;;;;781.10;721.40;;;7.30;99.90;;;;;;4862466;29;20487;-86
2021/11/18 08:08:45;;;;;;;780.00;720.20;;;7.30;99.90;;;;;;4861405;29;20468;-85
2021/11/18 08:11:13;;;;;;;784.67;727.37;;;7.30;99.90;;;;;;4862237;29;20492;-88
2021/11/18 08:13:49;;;;;;;782.33;725.73;;;7.40;99.90;;;;;;4862520;29;20460;-85
2021/11/18 08:16:19;;;;;;;772.37;716.23;;;7.40;99.90;;;;;;4862225;29;20464;-89
2021/11/18 08:18:53;;;;;;;764.37;708.50;;;7.60;99.90;;;;;;4862006;29;20551;-90
2021/11/18 08:21:45;;;;;;;763.73;710.30;;;7.50;99.90;;;;;;4878579;29;20463;-88
2021/11/18 08:24:22;;;;;;;743.57;692.50;;;7.60;99.90;;;;;;4867706;29;20869;-84
2021/11/18 08:27:20;;;;;;;705.57;659.70;;;7.70;99.90;;;;;;4880495;29;20462;-83
2021/11/18 08:30:28;;;;;;;676.70;637.00;;;7.80;99.90;;;;;;4804467;29;20499;-85
2021/11/18 08:33:06;;;;;;;679.90;640.60;;;7.70;99.90;;;;;;4878848;29;20463;-86
2021/11/18 08:35:40;;;;;;;678.50;639.83;;;7.80;99.90;;;;;;4880392;29;20523;-87
2021/11/18 08:38:13;;;;;;;669.13;631.53;;;7.80;99.90;;;;;;4879312;29;20473;-86
2021/11/18 08:40:57;;;;;;;664.30;627.47;;;7.80;99.90;;;;;;4878158;29;20786;-87
2021/11/18 08:43:53;;;;;;;630.70;596.83;;;7.90;99.90;;;;;;4880442;29;20470;-88
2021/11/18 08:49:52;;;;;;;;;;;;;;;;;;;;;
2021/11/18 08:53:11;;;;;;;;;;;;;;;;;;;;;
2021/11/18 09:03:33;;;;;;;;;;;;;;;;;;;;;
2021/11/18 09:06:48;;;;;;;;;;;;;;;;;;;;;
2021/11/18 09:09:56;;;;;;;244.87;233.50;;;8.70;99.90;;;;;;4822424;29;20464;-85
2021/11/18 09:18:38;;;;;;;153.70;144.67;;;8.80;99.90;;;;;;4788171;29;20499;-90
2021/11/18 09:21:39;;;;;;;;;;;;;;;;;;;;;
2021/11/18 09:24:44;;;;;;;;;;;;;;;;;;;;;
2021/11/18 09:44:25;;;;;;;;;;;;;;;;;;;;;
2021/11/18 09:57:46;;;;;;;183.80;174.23;;;9.00;99.90;;;;;;4776580;29;20678;-85
2021/11/18 11:07:36;;;;;;;29.23;14.60;;;10.90;88.90;;;;;;4644455;30;20490;-86
2021/11/18 11:10:48;;;;;;;29.70;13.17;;;11.10;87.20;;;;;;4612304;30;21040;-87
2021/11/18 11:20:25;;;;;;;;;;;;;;;;;;;;;
2021/11/18 11:23:11;;;;;;;;;;;;;;;;;;;;;
2021/11/18 11:28:55;;;;;;;22.67;9.50;;;12.80;69.30;;;;;;4752743;30;20492;-84
2021/11/18 11:31:43;;;;;;;22.63;8.67;;;12.60;69.40;;;;;;4847220;29;20497;-83
2021/11/18 11:34:36;;;;;;;32.27;10.80;;;12.80;69.10;;;;;;4863802;29;20517;-86
2021/11/18 11:37:29;;;;;;;20.80;7.93;;;12.90;67.30;;;;;;4855473;29;20492;-82
2021/11/18 11:40:04;;;;;;;23.47;9.13;;;13.00;64.00;;;;;;4863791;29;20472;-84
2021/11/18 11:43:04;;;;;;;25.50;9.70;;;12.80;64.80;;;;;;4864040;29;20465;-83
2021/11/18 11:45:42;;;;;;;22.90;7.60;;;12.50;67.00;;;;;;4859925;29;20552;-87
2021/11/18 11:48:42;;;;;;;29.97;8.00;;;12.40;65.50;;;;;;4863648;29;20470;-85
2021/11/18 11:51:51;;;;;;;28.20;10.17;;;12.50;67.20;;;;;;4863832;29;20462;-85
2021/11/18 11:54:56;;;;;;;26.73;9.03;;;12.50;67.10;;;;;;4858365;29;20520;-86
2021/11/18 11:57:50;;;;;;;24.73;9.53;;;12.40;66.00;;;;;;4863666;29;20555;-84
2021/11/18 12:01:08;;;;;;;24.37;9.00;;;12.60;67.90;;;;;;4826439;29;20496;-85
2021/11/18 12:03:48;;;;;;;30.53;9.70;;;12.60;65.20;;;;;;4860555;29;21011;-88
2021/11/18 12:06:28;;;;;;;17.87;7.13;;;12.40;66.30;;;;;;4863083;29;20504;-87
2021/11/18 12:09:36;;;;;;;;;;;;;;;;;;;;;
2021/11/18 12:12:27;;;;;;;24.37;8.10;;;12.00;68.00;;;;;;4854190;29;20812;-87
2021/11/18 12:14:59;;;;;;;20.03;9.03;;;11.90;68.10;;;;;;4863329;29;20495;-84
2021/11/18 12:17:40;;;;;;;25.47;9.30;;;11.70;69.40;;;;;;4863923;29;20476;-85
2021/11/18 12:20:20;;;;;;;23.33;8.33;;;11.70;70.20;;;;;;4857369;29;20469;-85
2021/11/18 12:23:20;;;;;;;;;;;;;;;;;;;;;
2021/11/18 12:26:42;;;;;;;24.83;6.30;;;11.30;70.20;;;;;;4837037;29;20488;-85
2021/11/18 12:33:00;;;;;;;19.67;6.57;;;11.00;70.40;;;;;;4837202;29;20513;-85
2021/11/18 12:36:16;;;;;;;16.43;6.20;;;11.00;71.50;;;;;;4881680;29;20470;-86
2021/11/18 12:42:23;;;;;;;;;;;;;;;;;;;;;
2021/11/18 12:45:20;;;;;;;18.03;6.20;;;11.40;70.30;;;;;;4833022;29;20487;-87
2021/11/18 12:48:32;;;;;;;;;;;;;;;;;;;;;
2021/11/18 13:53:20;;;;;;;18.10;7.60;;;10.40;73.90;;;;;;4680581;30;20484;-85
2021/11/18 13:56:30;;;;;;;22.87;9.27;;;10.50;75.00;;;;;;4732135;30;20555;-86
2021/11/18 13:59:54;;;;;;;;;;;;;;;;;;;;;
2021/11/18 14:05:46;;;;;;;29.80;9.50;;;10.50;75.80;;;;;;4784085;29;20484;-86
2021/11/18 14:12:27;;;;;;;;;;;;;;;;;;;;;
2021/11/18 14:15:34;;;;;;;19.83;7.90;;;10.40;75.50;;;;;;4821263;29;20470;-85
2021/11/18 14:21:34;;;;;;;27.60;8.00;;;10.30;76.40;;;;;;4819759;29;20464;-88
2021/11/18 14:24:32;;;;;;;21.27;8.00;;;10.30;76.50;;;;;;4841742;29;20945;-84
2021/11/18 14:27:04;;;;;;;21.03;7.27;;;10.30;76.00;;;;;;4843244;29;20489;-87
2021/11/18 14:29:52;;;;;;;30.50;6.90;;;10.20;77.10;;;;;;4843154;29;20465;-88
2021/11/18 14:32:42;;;;;;;19.30;7.87;;;10.30;76.00;;;;;;4842459;29;20504;-85
2021/11/18 14:35:31;;;;;;;24.23;7.40;;;10.20;75.50;;;;;;4842217;29;21008;-84
2021/11/18 14:38:10;;;;;;;19.50;7.40;;;10.20;75.50;;;;;;4841471;29;20469;-83
2021/11/18 14:40:48;;;;;;;31.13;7.27;;;10.10;76.40;;;;;;4842407;29;20467;-86
2021/11/18 14:43:25;;;;;;;16.60;7.07;;;10.20;75.90;;;;;;4842610;29;20457;-84
2021/11/18 14:46:15;;;;;;;21.53;6.73;;;10.10;76.40;;;;;;4842672;29;20968;-85
2021/11/18 14:48:50;;;;;;;21.43;6.90;;;10.10;76.20;;;;;;4843440;29;20473;-85
2021/11/18 14:51:38;;;;;;;31.30;7.37;;;10.00;76.90;;;;;;4842857;29;20465;-86
2021/11/18 14:54:24;;;;;;;23.73;6.30;;;9.90;78.60;;;;;;4841791;29;20465;-86
2021/11/18 14:57:33;;;;;;;21.60;7.80;;;9.90;77.80;;;;;;5132215;27;20918;-89
2021/11/18 15:00:05;;;;;;;30.20;9.80;;;9.80;78.90;;;;;;5133731;27;20798;-88
2021/11/18 15:02:33;;;;;;;23.77;9.00;;;9.80;80.10;;;;;;5114589;28;20444;-88
2021/11/18 15:05:06;;;;;;;21.33;9.43;;;9.70;79.60;;;;;;5134723;27;20452;-89
2021/11/18 15:07:33;;;;;;;22.87;10.00;;;9.70;81.10;;;;;;5132974;28;20939;-84
2021/11/18 15:10:13;;;;;;;28.43;12.20;;;9.70;81.10;;;;;;5132200;27;20444;-88
2021/11/18 15:12:44;;;;;;;28.07;11.03;;;9.50;81.40;;;;;;5133868;27;20451;-88
2021/11/18 15:15:20;;;;;;;24.63;12.17;;;9.50;81.80;;;;;;5132747;27;20505;-86
2021/11/18 15:17:56;;;;;;;27.17;12.50;;;9.40;82.10;;;;;;5137262;22;20448;-87
2021/11/18 15:20:34;;;;;;;22.57;13.07;;;9.40;82.80;;;;;;5111959;28;20449;-88
2021/11/18 15:23:07;;;;;;;23.63;17.23;;;9.40;82.90;;;;;;5111923;28;20507;-86
2021/11/18 15:25:41;;;;;;;41.40;15.60;;;9.40;83.60;;;;;;5111992;28;20517;-88
2021/11/18 15:28:21;;;;;;;35.43;18.77;;;9.50;83.90;;;;;;5110797;28;20457;-87
2021/11/18 15:30:52;;;;;;;23.60;15.33;;;9.40;84.00;;;;;;5110551;28;20537;-87
2021/11/18 15:33:34;;;;;;;26.00;17.70;;;9.30;84.00;;;;;;5110784;28;20948;-88
2021/11/18 15:36:19;;;;;;;;;;;;;;;;;;;;;
2021/11/18 15:38:57;;;;;;;26.00;23.40;;;9.10;85.80;;;;;;5113367;28;20449;-88
2021/11/18 15:41:39;;;;;;;35.63;32.83;;;8.90;86.50;;;;;;5114054;28;20493;-87
2021/11/18 15:44:22;;;;;;;47.10;43.00;;;8.90;88.40;;;;;;5113420;28;20525;-87
2021/11/18 15:46:51;;;;;;;69.47;65.77;;;8.60;89.50;;;;;;5113277;28;20497;-84
2021/11/18 15:49:23;;;;;;;110.40;104.60;;;8.60;90.70;;;;;;5111987;28;20479;-86
2021/11/18 15:51:52;;;;;;;140.97;134.27;;;8.40;90.80;;;;;;5109556;28;20465;-88
2021/11/18 15:54:19;;;;;;;152.67;146.00;;;8.40;91.80;;;;;;5110211;28;20455;-85
2021/11/18 15:56:47;;;;;;;183.07;175.47;;;8.40;92.10;;;;;;5110075;28;20516;-84
2021/11/18 15:59:16;;;;;;;195.23;186.77;;;8.40;91.80;;;;;;5111107;28;20573;-86
2021/11/18 16:01:49;;;;;;;229.80;220.03;;;8.40;92.30;;;;;;5110292;28;20480;-86
2021/11/18 16:04:22;;;;;;;228.37;218.77;;;8.20;92.90;;;;;;5110064;28;20476;-86
2021/11/18 16:07:00;;;;;;;242.47;232.27;;;8.20;93.20;;;;;;5105080;28;20475;-84
2021/11/18 16:12:26;;;;;;;310.53;298.40;;;8.10;94.10;;;;;;5093104;28;20438;-85
2021/11/18 16:15:03;;;;;;;337.13;323.30;;;8.10;94.30;;;;;;5095792;28;20453;-87
2021/11/18 16:17:37;;;;;;;332.40;318.10;;;8.20;94.70;;;;;;5076792;28;20449;-88
2021/11/18 16:22:57;;;;;;;265.23;255.40;;;8.40;93.80;;;;;;5434811;22;21031;-85
2021/11/18 16:25:38;;;;;;;241.70;231.60;;;8.40;93.60;;;;;;5012103;28;20473;-86
2021/11/18 16:28:14;;;;;;;223.37;214.63;;;8.40;93.80;;;;;;5013609;28;21271;-86
2021/11/18 16:31:00;;;;;;;214.53;205.77;;;8.30;93.60;;;;;;5013588;28;20453;-88
2021/11/18 16:33:32;;;;;;;217.30;208.43;;;8.40;93.70;;;;;;5027388;28;20506;-86
2021/11/18 16:36:24;;;;;;;221.93;213.23;;;8.20;93.90;;;;;;5034110;28;20495;-85
2021/11/18 16:38:54;;;;;;;253.37;243.63;;;8.20;94.10;;;;;;5032926;28;20815;-84
2021/11/18 16:41:40;;;;;;;264.43;253.77;;;8.00;94.70;;;;;;5034536;28;20502;-87
2021/11/18 16:44:25;;;;;;;286.00;273.80;;;8.00;95.00;;;;;;5034329;28;21071;-85
2021/11/18 16:47:00;;;;;;;291.07;279.33;;;8.00;96.10;;;;;;5033956;28;21023;-86
2021/11/18 16:49:44;;;;;;;293.77;281.87;;;8.00;96.30;;;;;;5034458;28;20920;-82
2021/11/18 16:52:27;;;;;;;302.47;289.77;;;7.90;96.00;;;;;;5033120;28;20483;-85
2021/11/18 16:55:04;;;;;;;307.00;294.70;;;7.90;96.10;;;;;;5034045;28;20519;-87
2021/11/18 16:57:43;;;;;;;307.60;294.60;;;8.00;95.70;;;;;;5033977;28;20490;-86
2021/11/18 17:00:26;;;;;;;336.93;322.40;;;7.90;96.00;;;;;;5034170;28;20456;-85
2021/11/18 17:03:08;;;;;;;339.47;324.47;;;7.90;96.70;;;;;;5033824;28;20461;-87
2021/11/18 17:05:36;;;;;;;335.97;321.37;;;7.90;96.80;;;;;;5033961;28;20452;-85
2021/11/18 17:11:47;;;;;;;;;;;;;;;;;;;;;
2021/11/18 17:21:18;;;;;;;278.93;266.83;;;8.50;95.20;;;;;;4914383;28;20813;-84
2021/11/18 17:23:53;;;;;;;253.27;242.83;;;8.60;95.20;;;;;;4903813;29;20577;-82
2021/11/18 17:26:24;;;;;;;216.07;206.50;;;8.70;94.60;;;;;;5024236;28;20467;-83
2021/11/18 17:28:57;;;;;;;183.00;175.00;;;8.70;94.30;;;;;;5033819;28;20484;-86
2021/11/18 17:31:34;;;;;;;152.83;145.17;;;8.80;93.90;;;;;;5033427;28;21009;-86
2021/11/18 17:34:13;;;;;;;132.20;125.40;;;8.90;93.20;;;;;;5031916;28;20533;-87
2021/11/18 17:40:00;;;;;;;91.23;84.20;;;9.00;92.80;;;;;;5031631;28;20453;-86
2021/11/18 17:42:39;;;;;;;82.53;78.00;;;9.00;92.40;;;;;;5040806;28;20468;-87
2021/11/18 17:45:16;;;;;;;66.97;62.83;;;9.20;92.20;;;;;;5039829;28;20452;-88
2021/11/18 17:48:09;;;;;;;53.10;49.33;;;9.10;91.60;;;;;;5038490;28;20455;-87
2021/11/18 17:51:20;;;;;;;;;;;;;;;;;;;;;
2021/11/18 17:54:08;;;;;;;48.50;44.00;;;9.20;91.20;;;;;;5041952;28;20448;-84
2021/11/18 17:56:45;;;;;;;37.17;33.83;;;9.20;91.10;;;;;;5039833;28;20488;-82
2021/11/18 17:59:25;;;;;;;42.27;38.50;;;9.30;91.10;;;;;;5038118;28;20479;-85
2021/11/18 18:02:23;;;;;;;;;;;;;;;;;;;;;
2021/11/18 18:04:59;;;;;;;40.13;36.70;;;9.40;91.20;;;;;;5000501;28;20865;-89
2021/11/18 18:07:39;;;;;;;41.27;37.17;;;9.40;91.20;;;;;;5036468;28;20555;-89
2021/11/18 18:10:26;;;;;;;31.60;28.90;;;9.40;91.10;;;;;;5034288;28;20943;-88
2021/11/18 18:13:32;;;;;;;32.23;28.93;;;9.40;90.60;;;;;;5035564;28;20456;-87
2021/11/18 18:16:06;;;;;;;34.67;31.33;;;9.50;90.80;;;;;;5033922;28;20534;-85
2021/11/18 18:19:01;;;;;;;38.60;34.60;;;9.50;91.00;;;;;;5035693;28;20445;-84
2021/11/18 18:25:28;;;;;;;33.90;27.77;;;9.50;90.60;;;;;;5031499;28;20444;-87
2021/11/18 18:28:17;;;;;;;28.40;26.17;;;9.50;90.80;;;;;;5028058;28;20456;-88
2021/11/18 18:30:52;;;;;;;28.63;25.80;;;9.60;90.60;;;;;;5032991;28;20453;-83
2021/11/18 18:33:27;;;;;;;28.37;25.97;;;9.60;90.60;;;;;;5033173;28;20471;-84
2021/11/18 18:36:44;;;;;;;28.87;25.87;;;9.50;90.70;;;;;;5033176;28;20455;-83
2021/11/18 18:39:30;;;;;;;34.83;31.90;;;9.70;90.70;;;;;;5032362;28;20456;-84
2021/11/18 18:45:49;;;;;;;;;;;;;;;;;;;;;
2021/11/18 18:51:55;;;;;;;;;;;;;;;;;;;;;
2021/11/18 18:54:56;;;;;;;29.50;26.50;;;9.70;90.50;;;;;;5016644;28;20805;-89
2021/11/18 18:58:04;;;;;;;25.53;23.23;;;9.70;90.30;;;;;;5020022;28;20488;-85
2021/11/18 19:01:19;;;;;;;;;;;;;;;;;;;;;
2021/11/18 19:18:03;;;;;;;33.47;30.07;;;9.80;90.30;;;;;;4833236;29;20904;-87
2021/11/18 19:34:43;;;;;;;40.60;37.20;;;9.90;90.40;;;;;;4935252;28;20478;-89
2021/11/18 19:37:20;;;;;;;51.10;40.33;;;9.90;90.50;;;;;;4978833;28;20482;-88
2021/11/18 19:40:02;;;;;;;47.30;43.50;;;9.80;90.60;;;;;;5033037;28;20942;-87
2021/11/18 19:42:40;;;;;;;41.33;38.03;;;9.80;91.10;;;;;;5034280;28;20555;-87
2021/11/18 19:45:12;;;;;;;45.47;42.13;;;9.80;90.80;;;;;;5036516;28;20467;-84
2021/11/18 19:47:43;;;;;;;43.90;40.80;;;9.80;90.90;;;;;;5036577;28;20452;-86
2021/11/18 19:50:24;;;;;;;49.07;45.13;;;9.80;90.90;;;;;;5036602;28;20488;-86
2021/11/18 19:53:08;;;;;;;41.50;38.00;;;9.80;91.00;;;;;;5035488;28;20867;-86
2021/11/18 19:56:00;;;;;;;48.10;44.57;;;9.80;90.70;;;;;;5036129;28;21001;-86
2021/11/18 19:58:52;;;;;;;;;;;;;;;;;;;;;
2021/11/18 20:08:29;;;;;;;;;;;;;;;;;;;;;
2021/11/18 20:11:21;;;;;;;83.40;78.87;;;9.70;91.30;;;;;;4994504;28;20461;-85
2021/11/18 20:13:59;;;;;;;94.23;89.13;;;9.60;91.60;;;;;;4994615;28;20450;-87
2021/11/18 20:16:36;;;;;;;105.07;98.47;;;9.70;91.60;;;;;;5022783;28;20860;-86
2021/11/18 20:19:10;;;;;;;111.40;106.50;;;9.80;92.00;;;;;;5035557;28;20458;-88
2021/11/18 20:21:56;;;;;;;126.60;119.70;;;9.70;92.10;;;;;;5035725;28;20464;-87
2021/11/18 20:34:40;;;;;;;168.93;161.03;;;9.70;92.80;;;;;;4951555;28;20448;-88
2021/11/18 20:37:19;;;;;;;167.43;159.63;;;9.70;92.90;;;;;;4994034;28;21004;-85
2021/11/18 20:40:00;;;;;;;150.97;143.93;;;9.70;92.90;;;;;;4994246;28;20455;-85
2021/11/18 20:42:39;;;;;;;160.20;152.70;;;9.70;92.90;;;;;;4994073;28;20993;-89
2021/11/18 20:48:10;;;;;;;155.60;148.53;;;9.80;92.60;;;;;;4989358;28;20512;-86
2021/11/18 20:50:54;;;;;;;158.30;150.27;;;9.80;92.70;;;;;;4994130;28;20564;-88
2021/11/18 20:53:57;;;;;;;153.83;146.97;;;9.70;92.90;;;;;;4993901;28;20464;-87
2021/11/18 20:57:00;;;;;;;134.43;128.07;;;9.70;92.90;;;;;;4994111;28;21008;-83
2021/11/18 21:00:04;;;;;;;160.37;152.80;;;9.80;92.80;;;;;;5032119;28;20981;-86
2021/11/18 21:02:36;;;;;;;176.33;168.73;;;9.60;93.30;;;;;;5034765;28;20467;-84
2021/11/18 21:05:11;;;;;;;190.47;182.33;;;9.70;93.10;;;;;;5035148;28;20460;-85
2021/11/18 21:07:42;;;;;;;199.33;189.87;;;9.60;93.20;;;;;;5034047;28;20479;-84
2021/11/18 21:26:39;;;;;;;236.13;226.60;;;9.60;93.70;;;;;;4922554;29;20493;-86
2021/11/18 21:30:20;;;;;;;;;;;;;;;;;;;;;
2021/11/18 22:19:31;;;;;;;;;;;;;;;;;;;;;
2021/11/18 22:26:24;;;;;;;;;;;;;;;;;;;;;
2021/11/18 22:29:10;;;;;;;180.00;172.33;;;9.80;94.70;;;;;;6083293;23;20420;-88
2021/11/18 22:31:50;;;;;;;222.53;213.50;;;9.70;94.80;;;;;;6084532;23;20904;-87
2021/11/18 22:34:41;;;;;;;280.80;268.90;;;9.80;95.00;;;;;;6083886;23;20420;-87
2021/11/18 22:42:42;;;;;;;322.17;308.17;;;9.70;95.60;;;;;;6226099;23;20515;-87
2021/11/18 23:05:15;;;;;;;361.23;345.47;;;9.80;96.00;;;;;;5942839;24;20853;-85
2021/11/18 23:11:46;;;;;;;;;;;;;;;;;;;;;
2021/11/18 23:14:22;;;;;;;407.10;389.70;;;9.80;96.50;;;;;;5943152;24;20420;-89
2021/11/18 23:17:20;;;;;;;;;;;;;;;;;;;;;
2021/11/18 23:30:06;;;;;;;;;;;;;;;;;;;;;
2021/11/18 23:32:58;;;;;;;404.90;386.43;;;9.80;96.90;;;;;;6200861;23;20425;-86
2021/11/18 23:38:48;;;;;;;412.13;393.90;;;9.80;97.10;;;;;;6163492;23;20409;-86
2021/11/18 23:42:27;;;;;;;;;;;;;;;;;;;;;
2021/11/18 23:49:23;;;;;;;;;;;;;;;;;;;;;
2021/11/18 23:56:11;;;;;;;456.30;434.27;;;9.80;98.00;;;;;;5925638;24;20869;-84
